Terminal Aerodrome Forecast
Issued by NWS Duluth, MN

Home | Current Version | Previous Version | Text Only | Print | Product List | Glossary On
Versions: 1 2 3 4 5 6 7 8 9 10 11 12 13 14 15 16 17 18 19 20 21 22
955
FTUS43 KDLH 082349
TAFINL
TAF
KINL 082349Z 0900/0924 32013G20KT 1 1/2SM -SN BLSN SCT025 OVC045
      TEMPO 0900/0904 4SM -SN OVC050
     FM090400 33012KT 5SM -SN SCT025 BKN050
     FM091000 33010KT P6SM SCT050
     FM091400 34008KT P6SM SKC=

USA.gov is the U.S. government's official web portal to all federal, state and local government web resources and services.